WFLO2: Webbers Falls Lock & Dam & Reservoir (L&D 16)

Data processed at Sun Dec 08 2019 23:55


All information presented herein is the property of the government of the United States of America and may be revised or deleted at any time without prior notice.
Dissemination of this information without the expressed written consent of the Public Affairs Office, Tulsa District U.S. Army Corps of Engineers is strictly prohibited.
These data are gathered electronically and, as presented, have not undergone any form of quality control. These data are not guaranteed to be valid or correct.
Go to home page.
Go to station list.
Go to home page.

Upstream stations:

Downstream station:
Previous Day
Next Day
Current Day
    
SHEF ID:       WFLO2     Webbers Falls LD16
STATION TYPE:  NAVIGATION LOCK
Navigation Pool:  Bottom =   487.00, Top =   490.00

               PRECIP ELEVATION   STORAGE   TW-ELEV    INFLOW   RELEASE  AIR-TEMP  WIND-DIRWIND-SPEED REL-HUMID SOLAR-RAD   VOLTAGE  BAT-LOAD
                   in        ft     ac-ft        ft       cfs       cfs         F       deg       mph         %      W/m2      volt      volt
              Ccp-Rev   Ccp-Rev   Ccp-Rev   Ccp-Rev  Rev-Regi  Rev-Regi   Ccp-Rev   Ccp-Rev   Ccp-Rev   Ccp-Rev   Ccp-Rev   Ccp-Rev   Ccp-Rev
(US/Central)
12/08 00:00      0.00    490.73    178955    461.93     33161     32350     42.35    172.30      3.90     80.66      0.00     13.23     12.97
12/08 01:00      0.00    490.73    178955    461.94     32280     32000     41.47    172.10      4.70     84.65      0.00     13.22     12.97
12/08 02:00      0.00    490.73    178955    461.85     33454     32350     40.50    171.50      4.50     89.49      0.00     13.22     12.97
12/08 03:00      0.00    490.72    178834    461.97     33161     32350     40.24    166.90      5.50     92.29      0.00     13.22     12.97
12/08 04:00      0.00    490.75    179197    461.88     32644     32350     40.51    166.40      6.80     93.40      0.00     13.22     12.97
12/08 05:00      0.00    490.76    179319    462.01     32644     32350     40.42    166.80     10.40     94.43      0.00     13.22     12.97
12/08 06:00      0.00    490.74    179076    461.96     33818     32350     40.37    156.40     10.90     95.41      0.00     13.23     12.97
12/08 07:00      0.00    490.74    179076    461.98     32350     32350     40.05    159.80     10.40     96.71      0.00     13.23     12.97
12/08 08:00      0.00    490.77    179440    462.02     31469     32350     40.55    157.00      8.30     97.82      4.80     13.24     12.97
12/08 09:00      0.00    490.75    179197    462.06     32280     32350     41.25    156.10     10.80     96.42     81.30     13.23     13.05
12/08 10:00      0.00    490.73    178955    461.98     32280     32350     41.95    157.80     11.10     96.18    150.40     13.23     13.05
12/08 11:00      0.00    490.74    179076    462.05     31986     32000     43.57    160.00     11.40     93.78    191.00     13.20     12.97
12/08 12:00      0.00    490.74    179076    462.03     31693     32350     45.75    162.80     10.70     89.59    271.90     13.24     12.81
12/08 13:00      0.00    490.76    179319    462.00     31693     32350     48.33    151.50     13.20     83.83    170.60     13.23     12.97
12/08 14:00      0.00    490.73    178955    462.01     31469     32350     51.06    158.70     12.10     78.74     68.00     13.23     12.97
12/08 15:00      0.00    490.71    178712    461.73     31176     32350     52.16    156.80     11.50     76.15     49.20     13.23     12.97
12/08 16:00      0.00    490.71    178712    461.88     30589     32350     51.55    150.10     10.10     78.62     32.50     13.23     12.97
12/08 17:00      0.00    490.70    178591    461.93     32056     32350     51.28    164.20      7.90     81.78      3.20     13.22     12.97
12/08 18:00      0.00    490.70    178591    461.84     32056     32350     51.37    162.50      7.30     82.13      0.00     13.22     12.97
12/08 19:00      0.00    490.72    178834    461.81     31399     32350     50.85    156.80      9.20     83.53      0.00     13.22     12.97
12/08 20:00      0.00    490.70    178591    461.78     31693     32350     50.02    160.10      6.30     86.01      0.00     13.22     12.97
12/08 21:00      0.00    490.68    178348    461.76     31329     32000     48.58    159.30      6.50     88.56      0.00     13.22     12.97
12/08 22:00      0.00    490.68    178348    461.68     30742     32350     48.27    169.60      5.10     90.36      0.00     13.22     12.97
12/08 23:00      0.00    490.67    178227    461.76     30602     32000     47.97    160.60      8.80     92.30      0.00     13.22     12.97